Time;durP1;ratioP1;P1;durP2;ratioP2;P2;SDS_P1;SDS_P2;PMS_P1;PMS_P2;Temp;Humidity;BMP_temperature;BMP_pressure;BME280_temperature;BME280_humidity;BME280_pressure;Samples;Min_cycle;Max_cycle;Signal;HPM_P1;HPM_P2
2023/08/25 00:01:16;;;;;;;5.70;5.20;;;;;;;;;;5101078;28;20383;-87
2023/08/25 00:03:42;;;;;;;7.90;5.30;;;;;;;;;;5109135;28;20455;-90
2023/08/25 00:08:38;;;;;;;5.25;4.75;;;19.00;99.90;;;;;;5068825;28;20453;-80
2023/08/25 00:11:04;;;;;;;6.77;4.87;;;19.30;99.90;;;;;;5072315;28;20778;-79
2023/08/25 00:13:29;;;;;;;5.70;5.10;;;18.70;99.90;;;;;;5072728;28;20821;-80
2023/08/25 00:15:55;;;;;;;5.80;4.38;;;19.20;99.90;;;;;;5072423;28;20387;-80
2023/08/25 00:18:20;;;;;;;5.30;4.80;;;19.20;99.90;;;;;;5065203;28;20864;-81
2023/08/25 00:20:48;;;;;;;7.40;5.30;;;19.60;99.90;;;;;;5033744;28;20880;-80
2023/08/25 00:23:14;;;;;;;5.88;5.30;;;19.30;99.90;;;;;;5034022;28;20512;-81
2023/08/25 00:25:44;;;;;;;6.10;5.30;;;19.50;99.90;;;;;;5057843;28;20434;-81
2023/08/25 00:28:10;;;;;;;7.43;5.10;;;19.60;99.90;;;;;;5076816;28;20394;-81
2023/08/25 00:30:35;;;;;;;5.00;4.60;;;19.10;99.90;;;;;;5086789;28;20391;-81
2023/08/25 00:33:01;;;;;;;9.90;5.03;;;19.20;99.90;;;;;;5075861;28;20388;-81
2023/08/25 00:35:26;;;;;;;5.47;4.73;;;18.70;99.90;;;;;;5078485;28;20426;-80
2023/08/25 00:37:52;;;;;;;7.30;5.30;;;19.10;99.90;;;;;;5070601;28;20389;-81
2023/08/25 00:40:17;;;;;;;5.93;4.97;;;19.20;99.90;;;;;;5075286;28;21038;-81
2023/08/25 00:42:43;;;;;;;9.13;4.70;;;19.40;99.90;;;;;;5076520;28;20490;-81
2023/08/25 00:45:09;;;;;;;6.47;5.07;;;19.10;99.90;;;;;;5076323;28;20391;-81
2023/08/25 00:47:35;;;;;;;5.43;5.03;;;19.10;99.90;;;;;;5077288;28;20525;-81
2023/08/25 00:50:02;;;;;;;5.82;5.20;;;19.00;99.90;;;;;;5060946;28;20440;-81
2023/08/25 00:52:28;;;;;;;8.55;4.97;;;19.30;99.90;;;;;;5054577;28;20392;-81
2023/08/25 00:54:55;;;;;;;5.10;4.60;;;18.70;99.90;;;;;;5053592;28;20481;-81
2023/08/25 00:57:22;;;;;;;6.65;4.80;;;19.50;99.90;;;;;;5036655;28;20777;-82
2023/08/25 00:59:49;;;;;;;6.07;4.83;;;18.90;99.90;;;;;;5063341;28;20388;-82
2023/08/25 01:02:15;;;;;;;4.88;4.38;;;18.80;99.90;;;;;;5069882;28;20516;-81
2023/08/25 01:04:41;;;;;;;4.93;4.53;;;18.70;99.90;;;;;;5053267;28;20503;-81
2023/08/25 01:07:06;;;;;;;4.90;4.50;;;19.00;99.90;;;;;;5052192;28;20398;-81
2023/08/25 01:09:33;;;;;;;5.03;4.27;;;19.00;99.90;;;;;;5033565;28;20539;-81
2023/08/25 01:12:09;;;;;;;4.88;4.38;;;19.00;99.90;;;;;;5035568;28;20448;-81
2023/08/25 01:14:46;;;;;;;5.43;4.70;;;19.50;99.90;;;;;;5068543;28;20728;-82
2023/08/25 01:17:19;;;;;;;5.57;4.50;;;19.00;99.90;;;;;;5072377;28;20376;-81
2023/08/25 01:19:55;;;;;;;5.20;4.70;;;19.00;99.90;;;;;;5071323;28;20380;-81
2023/08/25 01:22:27;;;;;;;4.87;4.13;;;21.10;99.90;;;;;;5040812;28;20775;-81
2023/08/25 01:24:58;;;;;;;4.93;4.15;;;19.10;99.90;;;;;;5052135;28;20457;-81
2023/08/25 01:27:25;;;;;;;5.55;4.57;;;19.40;99.90;;;;;;5033765;28;20409;-81
2023/08/25 01:29:50;;;;;;;4.60;4.20;;;19.60;99.90;;;;;;5051194;28;20376;-82
2023/08/25 01:32:16;;;;;;;5.37;4.87;;;19.50;99.90;;;;;;5044444;28;20762;-81
2023/08/25 01:34:41;;;;;;;5.50;4.90;;;18.90;99.90;;;;;;5071459;28;20392;-81
2023/08/25 01:37:18;;;;;;;5.50;5.00;;;19.10;99.90;;;;;;5053743;28;20762;-81
2023/08/25 01:39:47;;;;;;;5.40;4.03;;;19.50;99.90;;;;;;5067417;28;20390;-81
2023/08/25 01:42:16;;;;;;;6.35;5.07;;;18.90;99.90;;;;;;5051805;28;20496;-81
2023/08/25 01:44:44;;;;;;;7.20;5.20;;;19.30;99.90;;;;;;5052245;28;20392;-81
2023/08/25 01:47:11;;;;;;;5.40;4.35;;;19.10;99.90;;;;;;5071015;28;20962;-81
2023/08/25 01:49:38;;;;;;;6.82;4.95;;;18.80;99.90;;;;;;5071234;28;20867;-81
2023/08/25 01:52:04;;;;;;;5.40;4.90;;;19.30;99.90;;;;;;5073794;28;20763;-81
2023/08/25 01:54:30;;;;;;;5.22;4.70;;;18.90;99.90;;;;;;5074557;28;20383;-81
2023/08/25 01:56:55;;;;;;;9.07;4.90;;;19.70;99.90;;;;;;5043453;28;20388;-82
2023/08/25 01:59:21;;;;;;;6.35;4.40;;;19.50;99.90;;;;;;5054338;28;20393;-81
2023/08/25 02:01:47;;;;;;;7.37;4.80;;;19.40;99.90;;;;;;5054463;28;20432;-81
2023/08/25 02:04:12;;;;;;;7.32;5.00;;;18.80;99.90;;;;;;5037045;28;20397;-81
2023/08/25 02:06:38;;;;;;;6.43;4.87;;;19.50;99.90;;;;;;5064455;28;20413;-81
2023/08/25 02:09:04;;;;;;;7.17;4.77;;;18.80;99.90;;;;;;5073727;28;20781;-81
2023/08/25 02:11:30;;;;;;;5.63;5.13;;;19.20;99.90;;;;;;5074156;28;20391;-81
2023/08/25 02:13:55;;;;;;;6.55;4.82;;;19.20;99.90;;;;;;5055052;28;20384;-81
2023/08/25 02:16:21;;;;;;;5.40;4.77;;;19.30;99.90;;;;;;5060845;28;20401;-81
2023/08/25 02:18:46;;;;;;;7.50;5.10;;;19.10;99.90;;;;;;5065512;28;20373;-81
2023/08/25 02:21:12;;;;;;;5.60;5.00;;;19.50;99.90;;;;;;5061235;28;20470;-82
2023/08/25 02:23:37;;;;;;;5.80;5.30;;;19.60;99.90;;;;;;5053883;28;20409;-81
2023/08/25 02:26:03;;;;;;;7.07;4.63;;;19.50;99.90;;;;;;5061309;28;20396;-81
2023/08/25 02:28:28;;;;;;;6.77;5.37;;;19.30;99.90;;;;;;5054246;28;20810;-81
2023/08/25 02:30:54;;;;;;;6.70;4.90;;;19.00;99.90;;;;;;5050761;28;20805;-81
2023/08/25 02:33:19;;;;;;;8.30;5.90;;;18.90;99.90;;;;;;5051019;28;20388;-81
2023/08/25 02:35:45;;;;;;;5.90;5.30;;;18.80;99.90;;;;;;5051209;28;20393;-81
2023/08/25 02:38:11;;;;;;;6.77;5.40;;;19.50;99.90;;;;;;5050253;28;20388;-81
2023/08/25 02:40:40;;;;;;;6.05;4.97;;;18.90;99.90;;;;;;5052829;28;20756;-81
2023/08/25 02:43:07;;;;;;;5.95;5.35;;;19.10;99.90;;;;;;5048229;28;20910;-81
2023/08/25 02:45:33;;;;;;;5.10;4.70;;;19.50;99.90;;;;;;5071087;28;20409;-82
2023/08/25 02:47:59;;;;;;;5.20;4.55;;;19.70;99.90;;;;;;5052732;28;20379;-81
2023/08/25 02:50:25;;;;;;;6.90;5.20;;;19.50;99.90;;;;;;5052665;28;20387;-81
2023/08/25 02:52:50;;;;;;;7.32;5.88;;;19.30;99.90;;;;;;5063592;28;20949;-81
2023/08/25 02:55:19;;;;;;;6.85;5.00;;;19.50;99.90;;;;;;5052446;28;20471;-81
2023/08/25 02:57:45;;;;;;;7.18;5.90;;;19.10;99.90;;;;;;5070547;28;20392;-81
2023/08/25 03:00:23;;;;;;;5.83;5.23;;;18.80;99.90;;;;;;5070262;28;20859;-81
2023/08/25 03:02:49;;;;;;;6.38;5.40;;;19.80;99.90;;;;;;5070485;28;20395;-81
2023/08/25 03:05:15;;;;;;;7.07;5.43;;;18.70;99.90;;;;;;5051405;28;20531;-81
2023/08/25 03:07:40;;;;;;;7.20;5.25;;;19.70;99.90;;;;;;5033489;28;20418;-81
2023/08/25 03:10:10;;;;;;;8.48;5.82;;;19.80;99.90;;;;;;5043360;28;20419;-81
2023/08/25 03:12:36;;;;;;;9.50;5.85;;;19.50;99.90;;;;;;5052726;28;20782;-81
2023/08/25 03:15:01;;;;;;;7.22;5.72;;;19.80;99.90;;;;;;5070357;28;20383;-81
2023/08/25 03:17:27;;;;;;;6.20;5.70;;;19.70;99.90;;;;;;5070696;28;20914;-81
2023/08/25 03:19:53;;;;;;;6.88;4.95;;;19.50;99.90;;;;;;5043563;28;20397;-81
2023/08/25 03:22:18;;;;;;;6.43;5.55;;;19.80;99.90;;;;;;5050335;28;20405;-81
2023/08/25 03:24:44;;;;;;;7.83;5.40;;;18.80;99.90;;;;;;5032456;28;20415;-81
2023/08/25 03:27:10;;;;;;;5.65;5.15;;;19.30;99.90;;;;;;5032409;28;20765;-81
2023/08/25 03:29:36;;;;;;;7.10;5.50;;;19.50;99.90;;;;;;5053826;28;20391;-81
2023/08/25 03:32:02;;;;;;;7.67;5.33;;;19.00;99.90;;;;;;5083186;28;20425;-81
2023/08/25 03:34:29;;;;;;;6.30;5.40;;;19.40;99.90;;;;;;5086712;28;20415;-81
2023/08/25 03:36:54;;;;;;;5.03;4.53;;;19.40;99.90;;;;;;5077468;28;20438;-82
2023/08/25 03:39:20;;;;;;;5.50;5.00;;;19.20;99.90;;;;;;5067597;28;20897;-81
2023/08/25 03:41:46;;;;;;;6.93;5.37;;;19.80;99.90;;;;;;5038197;28;20912;-81
2023/08/25 03:44:11;;;;;;;6.22;4.90;;;19.70;99.90;;;;;;5052250;28;20474;-81
2023/08/25 03:46:37;;;;;;;6.20;4.70;;;19.30;99.90;;;;;;5056237;28;20380;-81
2023/08/25 03:49:02;;;;;;;11.25;4.88;;;18.70;99.90;;;;;;5056845;28;20392;-82
2023/08/25 03:51:28;;;;;;;6.67;4.83;;;19.70;99.90;;;;;;5056326;28;20529;-81
2023/08/25 03:53:54;;;;;;;6.80;4.80;;;;;;;;;;5061195;28;20396;-82
2023/08/25 03:56:19;;;;;;;6.35;4.70;;;19.50;99.90;;;;;;5035733;28;20900;-81
2023/08/25 03:58:45;;;;;;;5.68;5.00;;;18.90;99.90;;;;;;5054027;28;20401;-82
2023/08/25 04:01:11;;;;;;;5.83;5.23;;;18.90;99.90;;;;;;5054061;28;20393;-82
2023/08/25 04:03:36;;;;;;;6.57;5.18;;;19.30;99.90;;;;;;5065102;28;20964;-81
2023/08/25 04:06:02;;;;;;;7.07;4.60;;;19.70;99.90;;;;;;5073588;28;20927;-82
2023/08/25 04:08:28;;;;;;;5.77;4.87;;;19.10;99.90;;;;;;5086187;28;20455;-82
2023/08/25 04:10:54;;;;;;;7.22;5.03;;;;;;;;;;5078070;28;20815;-82
2023/08/25 04:13:19;;;;;;;5.63;4.72;;;19.60;99.90;;;;;;5064439;28;20766;-81
2023/08/25 04:15:45;;;;;;;8.77;5.37;;;;;;;;;;5054371;28;20382;-82
2023/08/25 04:18:11;;;;;;;6.43;4.90;;;19.80;99.90;;;;;;5053738;28;20784;-82
2023/08/25 04:20:37;;;;;;;5.60;5.10;;;;;;;;;;5060260;28;20805;-82
2023/08/25 04:23:03;;;;;;;5.88;5.20;;;;;;;;;;5059267;28;20468;-81
2023/08/25 04:25:30;;;;;;;5.68;5.18;;;;;;;;;;5076868;28;20371;-81
2023/08/25 04:27:56;;;;;;;5.88;4.95;;;20.10;99.90;;;;;;5077542;28;20376;-82
2023/08/25 04:30:22;;;;;;;5.70;5.13;;;;;;;;;;5075209;28;20433;-82
2023/08/25 04:32:49;;;;;;;6.00;5.40;;;19.60;99.90;;;;;;5056224;28;20461;-80
2023/08/25 04:35:15;;;;;;;6.07;5.10;;;;;;;;;;5064744;28;20399;-80
2023/08/25 04:37:44;;;;;;;6.03;5.00;;;;;;;;;;5077437;28;20850;-80
2023/08/25 04:40:10;;;;;;;8.20;6.03;;;;;;;;;;5056693;28;20380;-80
2023/08/25 04:42:38;;;;;;;6.47;5.60;;;;;;;;;;5076039;28;20525;-80
2023/08/25 04:45:04;;;;;;;6.40;5.50;;;20.70;99.90;;;;;;5070791;28;20405;-80
2023/08/25 04:47:30;;;;;;;6.13;5.25;;;;;;;;;;5056638;28;20421;-80
2023/08/25 04:49:57;;;;;;;7.95;5.70;;;20.30;99.90;;;;;;5056031;28;20887;-80
2023/08/25 04:52:23;;;;;;;6.80;5.35;;;19.70;99.90;;;;;;5037156;28;20405;-80
2023/08/25 04:54:49;;;;;;;6.15;5.10;;;19.80;99.90;;;;;;5054578;28;20377;-80
2023/08/25 04:57:14;;;;;;;6.47;5.78;;;19.80;99.90;;;;;;5036783;28;20838;-80
2023/08/25 04:59:40;;;;;;;6.27;5.60;;;19.10;99.90;;;;;;5054947;28;20560;-80
2023/08/25 05:02:05;;;;;;;6.68;5.60;;;19.10;99.90;;;;;;5037075;28;20397;-80
2023/08/25 05:04:31;;;;;;;6.07;5.47;;;19.20;99.90;;;;;;5054467;28;20393;-80
2023/08/25 05:06:56;;;;;;;5.90;5.07;;;19.90;99.90;;;;;;5057077;28;20457;-80
2023/08/25 05:09:22;;;;;;;8.10;5.20;;;19.60;99.90;;;;;;5056500;28;20457;-80
2023/08/25 05:11:48;;;;;;;6.72;5.20;;;19.60;99.90;;;;;;5056962;28;20380;-80
2023/08/25 05:14:13;;;;;;;6.10;5.50;;;19.20;99.90;;;;;;5075476;28;20470;-79
2023/08/25 05:16:39;;;;;;;6.45;5.85;;;19.50;99.90;;;;;;5056826;28;20380;-80
2023/08/25 05:19:05;;;;;;;6.72;5.75;;;19.70;99.90;;;;;;5055852;28;20397;-80
2023/08/25 05:21:30;;;;;;;5.70;5.20;;;19.70;99.90;;;;;;5054926;28;20465;-80
2023/08/25 05:24:18;;;;;;;7.47;6.03;;;19.50;99.90;;;;;;5059426;28;20419;-80
2023/08/25 05:26:44;;;;;;;6.80;5.88;;;20.50;99.90;;;;;;5057018;28;20812;-80
2023/08/25 05:29:10;;;;;;;6.40;5.75;;;19.80;99.90;;;;;;5075616;28;20415;-80
2023/08/25 05:31:35;;;;;;;7.53;5.73;;;20.10;99.90;;;;;;5076035;28;20379;-80
2023/08/25 05:34:01;;;;;;;6.63;5.80;;;20.00;99.90;;;;;;5056801;28;20381;-80
2023/08/25 05:36:26;;;;;;;6.57;5.97;;;20.60;99.90;;;;;;5055630;28;20386;-80
2023/08/25 05:38:52;;;;;;;6.10;5.50;;;20.70;99.90;;;;;;5056028;28;20859;-80
2023/08/25 05:41:18;;;;;;;5.43;4.93;;;21.00;99.90;;;;;;5055779;28;20435;-80
2023/08/25 05:43:43;;;;;;;7.20;5.88;;;20.10;99.90;;;;;;5050840;28;20400;-80
2023/08/25 05:46:09;;;;;;;6.37;5.40;;;20.40;99.90;;;;;;5087456;28;20398;-80
2023/08/25 05:48:34;;;;;;;7.57;6.77;;;19.90;99.90;;;;;;5085942;28;20396;-80
2023/08/25 05:51:00;;;;;;;8.70;6.00;;;19.90;99.90;;;;;;5058639;28;20397;-80
2023/08/25 05:53:26;;;;;;;6.93;5.73;;;20.70;99.90;;;;;;5055567;28;20860;-81
2023/08/25 05:55:51;;;;;;;4.40;4.00;;;20.10;99.90;;;;;;5037518;28;20443;-80
2023/08/25 05:58:17;;;;;;;6.78;4.30;;;20.70;99.90;;;;;;5067769;28;20797;-80
2023/08/25 06:00:42;;;;;;;4.90;4.17;;;20.40;99.90;;;;;;5061085;28;20883;-80
2023/08/25 06:03:08;;;;;;;4.47;4.07;;;21.70;99.90;;;;;;5047895;28;20413;-81
2023/08/25 06:05:33;;;;;;;5.53;4.10;;;20.20;99.90;;;;;;5055051;28;20373;-81
2023/08/25 06:07:59;;;;;;;5.60;4.40;;;21.10;99.90;;;;;;5095550;22;20458;-81
2023/08/25 06:10:26;;;;;;;5.18;3.97;;;21.10;99.90;;;;;;5092383;28;20416;-80
2023/08/25 06:12:52;;;;;;;4.88;4.38;;;20.50;99.90;;;;;;5089111;28;21129;-81
2023/08/25 06:15:18;;;;;;;6.03;4.50;;;20.30;99.90;;;;;;5073690;28;20448;-81
2023/08/25 06:17:43;;;;;;;5.50;4.30;;;20.90;99.90;;;;;;5069351;28;20435;-79
2023/08/25 06:20:09;;;;;;;4.90;3.80;;;20.30;99.90;;;;;;5057202;28;20381;-81
2023/08/25 06:22:34;;;;;;;4.67;4.27;;;21.30;99.90;;;;;;5053725;28;20415;-81
2023/08/25 06:25:00;;;;;;;5.00;4.50;;;22.10;99.90;;;;;;5072163;28;20465;-81
2023/08/25 06:27:25;;;;;;;5.00;4.13;;;21.00;99.90;;;;;;5057803;28;20443;-81
2023/08/25 06:29:51;;;;;;;6.47;3.90;;;;;;;;;;5051391;28;20818;-81
2023/08/25 06:32:17;;;;;;;4.97;4.38;;;20.90;99.90;;;;;;5053400;28;20396;-81
2023/08/25 06:34:42;;;;;;;6.20;3.90;;;22.50;99.90;;;;;;5053176;28;20384;-80
2023/08/25 06:37:08;;;;;;;10.00;4.68;;;21.10;99.90;;;;;;5064336;28;20921;-82
2023/08/25 06:39:34;;;;;;;5.43;4.40;;;20.70;99.90;;;;;;5072819;28;20469;-81
2023/08/25 06:42:00;;;;;;;6.15;3.90;;;21.50;99.90;;;;;;5073156;28;20423;-81
2023/08/25 06:44:25;;;;;;;5.28;4.35;;;21.30;99.90;;;;;;5059394;28;20884;-80
2023/08/25 06:46:51;;;;;;;9.93;4.10;;;21.50;99.90;;;;;;5074520;28;20413;-81
2023/08/25 06:49:16;;;;;;;6.70;4.43;;;22.80;99.90;;;;;;5077796;28;20392;-79
2023/08/25 06:51:42;;;;;;;10.00;6.27;;;21.20;99.90;;;;;;5088255;28;20388;-82
2023/08/25 06:54:08;;;;;;;10.40;5.90;;;20.40;99.90;;;;;;5094649;28;20474;-84
2023/08/25 06:56:33;;;;;;;10.77;5.57;;;19.80;99.90;;;;;;5078982;28;21126;-85
2023/08/25 06:58:59;;;;;;;7.40;6.03;;;20.10;99.90;;;;;;5052142;28;20373;-85
2023/08/25 07:01:25;;;;;;;8.75;7.05;;;;;;;;;;5051500;28;20872;-84
2023/08/25 07:03:50;;;;;;;11.10;8.45;;;20.30;99.90;;;;;;5064739;28;20414;-84
2023/08/25 07:06:16;;;;;;;12.40;9.40;;;20.00;99.90;;;;;;5070408;28;20387;-85
2023/08/25 07:08:42;;;;;;;9.48;7.00;;;19.60;99.90;;;;;;5071081;28;20411;-85
2023/08/25 07:11:07;;;;;;;9.38;7.15;;;19.70;99.90;;;;;;5070837;28;20379;-85
2023/08/25 07:13:33;;;;;;;8.00;7.20;;;22.30;99.90;;;;;;5058155;28;20472;-85
2023/08/25 07:15:58;;;;;;;8.07;7.28;;;20.20;99.90;;;;;;5064292;28;20874;-85
2023/08/25 07:18:24;;;;;;;10.87;8.00;;;19.70;99.90;;;;;;5069715;28;20384;-84
2023/08/25 07:20:50;;;;;;;10.52;8.32;;;19.80;99.90;;;;;;5069246;28;20429;-85
2023/08/25 07:23:17;;;;;;;11.98;8.52;;;19.10;99.90;;;;;;5069731;28;20403;-85
2023/08/25 07:25:45;;;;;;;9.68;8.07;;;22.20;99.90;;;;;;5064464;28;20484;-84
2023/08/25 07:28:11;;;;;;;10.30;6.95;;;20.20;99.90;;;;;;5070821;28;20403;-85
2023/08/25 07:30:38;;;;;;;9.88;7.80;;;;;;;;;;5070358;28;20379;-86
2023/08/25 07:33:05;;;;;;;8.83;6.73;;;20.10;99.90;;;;;;5070765;28;20379;-85
2023/08/25 07:35:35;;;;;;;10.93;8.93;;;19.20;99.90;;;;;;5063672;28;20754;-84
2023/08/25 07:38:01;;;;;;;9.60;7.80;;;;;;;;;;5068387;28;20478;-85
2023/08/25 07:40:26;;;;;;;9.15;7.93;;;19.70;99.90;;;;;;5072848;28;20410;-84
2023/08/25 07:42:52;;;;;;;8.70;7.57;;;19.10;99.90;;;;;;5065832;28;20405;-84
2023/08/25 07:45:18;;;;;;;8.43;7.53;;;18.90;99.90;;;;;;5051137;28;20385;-85
2023/08/25 07:47:43;;;;;;;9.83;7.70;;;20.10;99.90;;;;;;5058364;28;20463;-86
2023/08/25 07:50:09;;;;;;;10.37;7.90;;;20.10;99.90;;;;;;5050086;28;20381;-86
2023/08/25 07:52:35;;;;;;;8.32;7.53;;;20.20;99.90;;;;;;5049530;28;20480;-85
2023/08/25 07:55:01;;;;;;;9.93;7.43;;;;;;;;;;5051916;28;20420;-85
2023/08/25 07:57:27;;;;;;;8.65;7.75;;;20.20;99.90;;;;;;5055715;28;20397;-84
2023/08/25 07:59:53;;;;;;;8.10;7.00;;;19.30;99.90;;;;;;5073416;28;20371;-84
2023/08/25 08:02:18;;;;;;;7.00;6.40;;;19.50;99.90;;;;;;5072984;28;20400;-86
2023/08/25 08:04:44;;;;;;;9.87;7.00;;;20.10;99.90;;;;;;5054785;28;20381;-84
2023/08/25 08:07:09;;;;;;;8.00;7.20;;;20.20;99.90;;;;;;5053807;28;20409;-85
2023/08/25 08:09:36;;;;;;;7.87;6.77;;;19.80;99.90;;;;;;5052624;28;20397;-85
2023/08/25 08:12:01;;;;;;;8.20;6.30;;;20.00;99.90;;;;;;5054063;28;20381;-86
2023/08/25 08:14:27;;;;;;;7.67;6.97;;;19.40;99.90;;;;;;5069854;28;20384;-86
2023/08/25 08:16:53;;;;;;;9.35;7.70;;;20.10;99.90;;;;;;5052863;28;20385;-86
2023/08/25 08:19:18;;;;;;;6.33;5.73;;;20.40;99.90;;;;;;5054187;28;20389;-86
2023/08/25 08:21:44;;;;;;;8.00;6.00;;;20.40;99.90;;;;;;5053151;28;20377;-87
2023/08/25 08:24:09;;;;;;;8.20;6.10;;;19.80;99.90;;;;;;5053687;28;20385;-87
2023/08/25 08:26:36;;;;;;;6.40;5.80;;;19.90;99.90;;;;;;5065421;28;20464;-87
2023/08/25 08:29:02;;;;;;;6.70;5.67;;;21.50;99.90;;;;;;5052976;28;20439;-86
2023/08/25 08:31:29;;;;;;;7.23;6.13;;;;;;;;;;5054492;28;20857;-87
2023/08/25 08:33:55;;;;;;;9.15;6.70;;;;;;;;;;5056078;28;20465;-88
2023/08/25 08:36:22;;;;;;;8.27;7.20;;;;;;;;;;5069568;28;20399;-87
2023/08/25 08:38:47;;;;;;;7.97;7.05;;;;;;;;;;5084007;28;20465;-86
2023/08/25 08:41:17;;;;;;;7.45;6.38;;;20.10;99.90;;;;;;5089456;28;20379;-86
2023/08/25 08:43:45;;;;;;;8.10;7.30;;;20.10;99.90;;;;;;5084022;28;20429;-88
2023/08/25 08:46:15;;;;;;;7.85;7.13;;;;;;;;;;5060273;28;20469;-88
2023/08/25 08:48:41;;;;;;;8.43;7.50;;;;;;;;;;5057243;28;20380;-86
2023/08/25 08:51:08;;;;;;;8.23;7.43;;;;;;;;;;5079232;28;20399;-85
2023/08/25 08:53:34;;;;;;;7.63;6.80;;;20.40;99.90;;;;;;5097063;28;20392;-86
2023/08/25 08:56:01;;;;;;;7.65;6.95;;;;;;;;;;5094789;28;20403;-86
2023/08/25 08:58:28;;;;;;;8.40;6.88;;;;;;;;;;5075755;28;20914;-88
2023/08/25 09:00:56;;;;;;;8.98;8.07;;;;;;;;;;5072408;28;20453;-86
2023/08/25 09:03:24;;;;;;;7.25;6.40;;;20.40;99.90;;;;;;5072419;28;20932;-88
2023/08/25 09:05:57;;;;;;;8.07;7.20;;;21.00;99.90;;;;;;5073281;28;20379;-87
2023/08/25 09:08:23;;;;;;;7.50;6.80;;;;;;;;;;5073647;28;20391;-86
2023/08/25 09:10:49;;;;;;;8.73;6.70;;;20.70;99.90;;;;;;5074963;28;20392;-86
2023/08/25 09:13:14;;;;;;;7.63;6.82;;;20.50;99.90;;;;;;5076889;28;20403;-86
2023/08/25 09:15:40;;;;;;;8.77;6.87;;;20.50;99.90;;;;;;5073646;28;20743;-87
2023/08/25 09:18:07;;;;;;;7.57;6.60;;;21.10;99.90;;;;;;5072721;28;20597;-85
2023/08/25 09:20:34;;;;;;;7.43;6.72;;;21.10;99.90;;;;;;5072650;28;20395;-85
2023/08/25 09:23:02;;;;;;;7.18;6.57;;;21.00;99.90;;;;;;5074017;28;20404;-85
2023/08/25 09:25:28;;;;;;;8.68;6.60;;;20.70;99.90;;;;;;5076019;28;20380;-87
2023/08/25 09:27:59;;;;;;;7.80;7.00;;;21.30;99.90;;;;;;5077284;28;20417;-86
2023/08/25 09:30:37;;;;;;;7.80;7.00;;;20.90;99.90;;;;;;5072251;28;20780;-85
2023/08/25 09:33:04;;;;;;;8.05;6.40;;;20.80;99.90;;;;;;5072409;28;20428;-85
2023/08/25 09:35:31;;;;;;;8.63;6.70;;;21.50;99.90;;;;;;5074232;28;20391;-86
2023/08/25 09:37:57;;;;;;;7.13;6.45;;;;;;;;;;5071646;28;20403;-86
2023/08/25 09:40:22;;;;;;;6.88;6.20;;;21.30;99.90;;;;;;5072975;28;20388;-85
2023/08/25 09:42:48;;;;;;;6.50;5.90;;;21.80;99.90;;;;;;5069069;28;20419;-85
2023/08/25 09:45:14;;;;;;;7.00;6.30;;;21.80;99.90;;;;;;5053096;28;20384;-86
2023/08/25 09:47:43;;;;;;;6.60;6.00;;;22.30;99.90;;;;;;5069477;28;20392;-87
2023/08/25 09:50:13;;;;;;;6.57;5.90;;;21.40;99.90;;;;;;5080412;28;20391;-86
2023/08/25 09:52:40;;;;;;;6.68;5.57;;;21.70;99.90;;;;;;5096847;28;20403;-85
2023/08/25 09:55:06;;;;;;;6.00;5.40;;;21.80;99.90;;;;;;5094124;28;20388;-84
2023/08/25 09:57:33;;;;;;;6.68;5.72;;;22.60;99.90;;;;;;5073177;28;20384;-84
2023/08/25 09:59:59;;;;;;;4.40;3.83;;;21.90;99.90;;;;;;5074169;28;20751;-84
2023/08/25 10:02:25;;;;;;;4.57;3.50;;;22.50;99.90;;;;;;5072191;28;20446;-84
2023/08/25 10:04:53;;;;;;;4.10;3.30;;;;;;;;;;5074042;28;20403;-84
2023/08/25 10:07:21;;;;;;;3.60;3.30;;;22.30;99.90;;;;;;5072686;28;20940;-83
2023/08/25 10:09:46;;;;;;;5.25;3.40;;;22.60;99.90;;;;;;5073451;28;20388;-83
2023/08/25 10:12:13;;;;;;;4.37;3.10;;;23.70;99.90;;;;;;5074626;28;20388;-83
2023/08/25 10:14:43;;;;;;;3.38;3.17;;;22.50;99.90;;;;;;5073376;28;20406;-82
2023/08/25 10:17:14;;;;;;;3.28;3.03;;;22.80;99.90;;;;;;5073136;28;20466;-81
2023/08/25 10:19:42;;;;;;;3.00;2.70;;;22.30;99.90;;;;;;5072075;28;20387;-81
2023/08/25 10:22:09;;;;;;;3.70;2.50;;;22.80;99.90;;;;;;5072549;28;20407;-82
2023/08/25 10:24:35;;;;;;;4.68;2.40;;;23.00;7.70;;;;;;5073108;28;20899;-81
2023/08/25 10:27:01;;;;;;;3.25;2.97;;;23.00;1.60;;;;;;5073111;28;20379;-82
2023/08/25 10:29:27;;;;;;;2.72;2.47;;;25.80;1.10;;;;;;5072236;28;20470;-80
2023/08/25 10:32:02;;;;;;;2.80;2.60;;;22.30;13.10;;;;;;5069889;28;20391;-80
2023/08/25 10:34:37;;;;;;;2.80;2.23;;;23.30;4.70;;;;;;5053688;28;20937;-82
2023/08/25 10:37:11;;;;;;;3.13;2.83;;;23.00;1.00;;;;;;5052993;28;21058;-82
2023/08/25 10:39:56;;;;;;;3.78;2.70;;;23.40;1.00;;;;;;5052630;28;20405;-80
2023/08/25 10:42:30;;;;;;;4.00;3.00;;;23.70;1.00;;;;;;5064621;28;20416;-83
2023/08/25 10:45:04;;;;;;;2.90;2.70;;;23.40;1.00;;;;;;5065055;28;20387;-81
2023/08/25 10:47:30;;;;;;;3.00;2.70;;;23.80;1.00;;;;;;5065888;28;20474;-84
2023/08/25 10:50:00;;;;;;;2.90;2.67;;;25.40;1.00;;;;;;5064100;28;20420;-82
2023/08/25 10:52:25;;;;;;;3.13;2.80;;;23.50;1.00;;;;;;5055868;28;20875;-82
2023/08/25 10:54:52;;;;;;;3.90;2.80;;;23.90;1.00;;;;;;5073016;28;20392;-82
2023/08/25 10:57:40;;;;;;;4.15;2.92;;;24.20;1.00;;;;;;5061036;28;20389;-82
2023/08/25 11:00:33;;;;;;;3.05;2.75;;;24.90;1.00;;;;;;5063616;28;20377;-81
2023/08/25 11:02:59;;;;;;;4.68;3.30;;;24.40;1.00;;;;;;5074311;28;20744;-82
2023/08/25 11:05:34;;;;;;;4.15;2.90;;;24.30;1.00;;;;;;5074265;28;20453;-82
2023/08/25 11:08:25;;;;;;;3.72;3.42;;;24.70;1.00;;;;;;5074828;28;20445;-80
2023/08/25 11:11:11;;;;;;;4.20;3.20;;;24.80;1.00;;;;;;5074122;28;20466;-81
2023/08/25 11:13:39;;;;;;;3.55;3.25;;;24.30;1.00;;;;;;5073646;28;20412;-80
2023/08/25 11:16:07;;;;;;;4.35;3.47;;;27.30;1.00;;;;;;5074325;28;20752;-81
2023/08/25 11:18:32;;;;;;;3.53;2.90;;;24.70;1.00;;;;;;5074620;28;20394;-82
2023/08/25 11:21:00;;;;;;;5.05;3.40;;;24.80;1.00;;;;;;5073866;28;21004;-82
2023/08/25 11:23:41;;;;;;;3.70;3.40;;;25.10;1.00;;;;;;5073424;28;20396;-79
2023/08/25 11:26:08;;;;;;;3.50;3.17;;;25.00;1.00;;;;;;5072623;28;20449;-81
2023/08/25 11:28:34;;;;;;;3.80;3.20;;;25.30;1.00;;;;;;5072534;28;20384;-78
2023/08/25 11:31:01;;;;;;;3.28;2.97;;;24.80;1.00;;;;;;5078009;28;21044;-82
2023/08/25 11:33:26;;;;;;;3.30;3.08;;;25.00;1.00;;;;;;5084457;28;20403;-80
2023/08/25 11:35:53;;;;;;;3.40;3.10;;;24.60;1.00;;;;;;5077786;28;20400;-84
2023/08/25 11:38:20;;;;;;;2.60;2.40;;;24.70;1.00;;;;;;5079747;28;20387;-84
2023/08/25 11:40:45;;;;;;;3.63;2.70;;;25.50;1.00;;;;;;5077415;28;20396;-84
2023/08/25 11:43:11;;;;;;;2.83;2.63;;;25.10;1.00;;;;;;5079627;28;20871;-83
2023/08/25 11:45:37;;;;;;;2.90;2.40;;;25.40;1.00;;;;;;5075446;28;20384;-84
2023/08/25 11:48:03;;;;;;;2.80;2.58;;;24.80;1.00;;;;;;5077157;28;20436;-84
2023/08/25 11:50:29;;;;;;;2.80;2.60;;;24.90;1.00;;;;;;5076597;28;20401;-85
2023/08/25 11:52:56;;;;;;;2.57;2.37;;;25.00;1.00;;;;;;5078083;28;20475;-84
2023/08/25 11:55:29;;;;;;;3.30;2.50;;;24.90;1.00;;;;;;5059624;28;20496;-83
2023/08/25 11:57:55;;;;;;;2.92;2.72;;;25.30;1.00;;;;;;5060084;28;20466;-84
2023/08/25 12:00:21;;;;;;;3.88;2.67;;;26.70;1.00;;;;;;5060006;28;20805;-86
2023/08/25 12:02:56;;;;;;;3.00;2.80;;;25.80;1.00;;;;;;5058283;28;20405;-83
2023/08/25 12:05:22;;;;;;;2.90;2.50;;;26.30;1.00;;;;;;5069536;28;20402;-83
2023/08/25 12:07:48;;;;;;;2.53;2.33;;;26.50;1.00;;;;;;5074818;22;20429;-83
2023/08/25 12:10:18;;;;;;;4.07;2.40;;;27.00;1.00;;;;;;5066686;28;20472;-85
2023/08/25 12:12:45;;;;;;;3.00;2.70;;;29.30;1.00;;;;;;5071189;28;20375;-82
2023/08/25 12:15:11;;;;;;;3.05;2.78;;;29.00;1.00;;;;;;5072741;28;20399;-79
2023/08/25 12:17:39;;;;;;;2.72;2.50;;;28.40;1.00;;;;;;5074654;28;20442;-80
2023/08/25 12:20:16;;;;;;;3.28;2.80;;;30.00;1.00;;;;;;5074864;28;20384;-80
2023/08/25 12:22:54;;;;;;;3.80;3.00;;;28.40;1.00;;;;;;5067824;28;20409;-80
2023/08/25 12:25:20;;;;;;;3.20;2.55;;;28.60;1.00;;;;;;5054014;28;20444;-80
2023/08/25 12:27:48;;;;;;;3.50;3.20;;;27.10;1.00;;;;;;5054330;28;20485;-80
2023/08/25 12:30:13;;;;;;;3.20;2.80;;;27.20;1.00;;;;;;5053533;28;20477;-81
2023/08/25 12:32:39;;;;;;;2.75;2.55;;;26.80;1.00;;;;;;5054562;28;20393;-80
2023/08/25 12:35:05;;;;;;;2.60;2.40;;;26.40;1.00;;;;;;5056058;28;20465;-80
2023/08/25 12:37:31;;;;;;;2.95;2.67;;;;;;;;;;5055867;28;20418;-81
2023/08/25 12:39:57;;;;;;;3.00;2.80;;;;;;;;;;5053875;28;20416;-80
2023/08/25 12:42:22;;;;;;;3.80;3.50;;;26.20;1.00;;;;;;5055301;28;20405;-81
2023/08/25 12:44:47;;;;;;;3.93;2.80;;;26.10;1.00;;;;;;5056035;28;20412;-79
2023/08/25 12:47:13;;;;;;;3.65;3.15;;;26.30;1.00;;;;;;5055232;28;20378;-80
2023/08/25 12:49:39;;;;;;;5.87;4.50;;;28.70;1.00;;;;;;5053620;28;20396;-80
2023/08/25 12:52:04;;;;;;;5.27;4.23;;;26.70;1.00;;;;;;5055547;28;20389;-80
2023/08/25 12:54:30;;;;;;;3.63;3.10;;;25.80;1.00;;;;;;5054840;28;20393;-80
2023/08/25 12:56:55;;;;;;;3.90;3.10;;;26.20;1.00;;;;;;5054224;28;20386;-80
2023/08/25 12:59:21;;;;;;;4.15;2.95;;;27.90;1.00;;;;;;5055011;28;20385;-79
2023/08/25 13:01:46;;;;;;;3.53;2.85;;;26.30;1.00;;;;;;5054097;28;20471;-79